Time,TemperatureF,DewpointF,PressureIn,WindDirection,WindDirectionDegrees,WindSpeedMPH,WindSpeedGustMPH,Humidity,HourlyPrecipIn,Conditions,Clouds,dailyrainin,SoftwareType,DateUTC
2016-07-27 06:55:00,80.8,53.5,30.05,NE,49,0.0,0.0,39,0.00,,---,0.00,VWS V15.00,2016-07-27 10:55:00,
2016-07-27 07:00:00,67.5,54.9,30.05,NE,45,0.0,0.0,64,0.00,,---,0.00,VWS V15.00,2016-07-27 11:00:00,
2016-07-27 07:05:00,67.5,54.9,30.05,NE,45,0.0,0.0,64,0.00,,---,0.00,VWS V15.00,2016-07-27 11:05:00,
2016-07-27 07:10:00,67.5,55.3,30.05,NE,45,0.0,0.0,65,0.00,,---,0.00,VWS V15.00,2016-07-27 11:10:00,
2016-07-27 07:15:00,67.6,55.5,30.05,NE,45,0.0,0.0,65,0.00,,---,0.00,VWS V15.00,2016-07-27 11:15:00,
2016-07-27 07:20:00,67.8,55.6,30.05,NE,45,0.0,0.0,65,0.00,,---,0.00,VWS V15.00,2016-07-27 11:20:00,
2016-07-27 07:25:00,68.2,56.0,30.05,NE,45,0.0,0.0,65,0.00,,---,0.00,VWS V15.00,2016-07-27 11:25:00,
2016-07-27 07:30:00,68.4,56.2,30.05,NE,45,0.0,0.0,65,0.00,,---,0.00,VWS V15.00,2016-07-27 11:30:00,
2016-07-27 07:35:00,68.5,56.3,30.05,NE,45,0.0,0.0,65,0.00,,---,0.00,VWS V15.00,2016-07-27 11:35:00,
2016-07-27 07:40:00,68.9,56.7,30.05,NE,45,0.0,0.0,65,0.00,,---,0.00,VWS V15.00,2016-07-27 11:40:00,
2016-07-27 07:45:00,69.3,57.0,30.05,NE,45,0.0,0.0,65,0.00,,---,0.00,VWS V15.00,2016-07-27 11:45:00,
2016-07-27 07:50:00,69.4,57.2,30.05,NE,45,0.0,0.0,65,0.00,,---,0.00,VWS V15.00,2016-07-27 11:50:00,
2016-07-27 07:55:00,69.8,57.5,30.05,NE,45,0.0,0.0,65,0.00,,---,0.00,VWS V15.00,2016-07-27 11:55:00,
2016-07-27 08:00:00,70.0,57.7,30.05,NE,45,0.0,0.0,65,0.00,,---,0.00,VWS V15.00,2016-07-27 12:00:00,
2016-07-27 08:05:00,70.2,57.9,30.05,NE,45,0.0,0.0,65,0.00,,---,0.00,VWS V15.00,2016-07-27 12:05:00,
2016-07-27 08:10:00,70.3,58.0,30.05,NE,45,0.0,0.0,65,0.00,,---,0.00,VWS V15.00,2016-07-27 12:10:00,
2016-07-27 08:15:00,70.7,58.4,30.05,NE,45,0.0,0.0,65,0.00,,---,0.00,VWS V15.00,2016-07-27 12:15:00,
2016-07-27 08:20:00,71.2,58.9,30.05,NE,45,2.7,2.7,65,0.00,,---,0.00,VWS V15.00,2016-07-27 12:20:00,
2016-07-27 08:25:00,71.4,58.6,30.05,NE,45,0.0,0.0,64,0.04,,---,0.04,VWS V15.00,2016-07-27 12:25:00,
2016-07-27 08:30:00,71.6,58.8,30.05,NE,45,0.0,0.0,64,0.04,,---,0.04,VWS V15.00,2016-07-27 12:30:00,
2016-07-27 08:35:00,71.8,58.5,30.05,NE,45,0.0,0.0,63,0.04,,---,0.04,VWS V15.00,2016-07-27 12:35:00,
2016-07-27 08:40:00,72.1,58.9,30.05,NE,45,2.7,2.7,63,0.04,,---,0.04,VWS V15.00,2016-07-27 12:40:00,
2016-07-27 08:45:00,72.5,59.2,30.05,NE,45,0.0,0.0,63,0.04,,---,0.04,VWS V15.00,2016-07-27 12:45:00,
2016-07-27 08:50:00,72.7,58.9,30.05,NE,45,0.0,0.0,62,0.04,,---,0.04,VWS V15.00,2016-07-27 12:50:00,
2016-07-27 08:55:00,72.9,58.6,30.05,NE,45,0.0,0.0,61,0.04,,---,0.04,VWS V15.00,2016-07-27 12:55:00,
2016-07-27 09:00:00,73.0,58.3,30.05,NE,45,2.2,2.2,60,0.04,,---,0.04,VWS V15.00,2016-07-27 13:00:00,
2016-07-27 09:05:00,73.2,58.0,30.05,NE,45,3.6,3.6,59,0.04,,---,0.04,VWS V15.00,2016-07-27 13:05:00,
2016-07-27 09:10:00,73.4,57.7,30.05,NE,45,0.0,0.0,58,0.04,,---,0.04,VWS V15.00,2016-07-27 13:10:00,
2016-07-27 09:15:00,73.8,58.1,30.05,NE,45,0.0,0.0,58,0.04,,---,0.04,VWS V15.00,2016-07-27 13:15:00,
2016-07-27 09:20:00,74.1,57.9,30.05,NE,45,2.7,2.7,57,0.04,,---,0.04,VWS V15.00,2016-07-27 13:20:00,
2016-07-27 09:25:00,74.3,57.6,30.05,NE,45,0.0,0.0,56,0.00,,---,0.04,VWS V15.00,2016-07-27 13:25:00,
2016-07-27 09:30:00,74.5,57.8,30.05,NE,45,0.0,0.0,56,0.00,,---,0.04,VWS V15.00,2016-07-27 13:30:00,
2016-07-27 09:35:00,74.7,57.4,30.05,NE,45,3.1,3.1,55,0.00,,---,0.04,VWS V15.00,2016-07-27 13:35:00,
2016-07-27 09:40:00,74.8,57.1,30.05,NE,45,0.0,0.0,54,0.00,,---,0.04,VWS V15.00,2016-07-27 13:40:00,
2016-07-27 09:45:00,75.0,57.3,30.05,NE,45,0.0,0.0,54,0.00,,---,0.04,VWS V15.00,2016-07-27 13:45:00,
2016-07-27 09:50:00,75.2,56.4,30.05,NE,45,0.0,0.0,52,0.00,,---,0.04,VWS V15.00,2016-07-27 13:50:00,
2016-07-27 09:55:00,75.4,56.0,30.05,NE,45,2.7,2.7,51,0.00,,---,0.04,VWS V15.00,2016-07-27 13:55:00,
2016-07-27 10:00:00,75.6,56.2,30.05,NE,45,2.2,2.7,51,0.00,,---,0.04,VWS V15.00,2016-07-27 14:00:00,
2016-07-27 10:05:00,75.9,56.0,30.05,NE,45,3.6,3.6,50,0.00,,---,0.04,VWS V15.00,2016-07-27 14:05:00,
2016-07-27 10:10:00,76.1,55.6,30.05,NE,45,0.0,2.7,49,0.00,,---,0.04,VWS V15.00,2016-07-27 14:10:00,
2016-07-27 10:15:00,76.3,55.7,30.05,East,101,2.7,2.7,49,0.00,,---,0.04,VWS V15.00,2016-07-27 14:15:00,
2016-07-27 10:20:00,76.5,55.9,30.05,NE,50,0.0,0.0,49,0.00,,---,0.04,VWS V15.00,2016-07-27 14:20:00,
2016-07-27 10:25:00,76.6,55.5,30.05,NE,50,0.0,0.0,48,0.00,,---,0.04,VWS V15.00,2016-07-27 14:25:00,
2016-07-27 10:30:00,76.8,55.7,30.05,NE,50,0.0,0.0,48,0.00,,---,0.04,VWS V15.00,2016-07-27 14:30:00,
2016-07-27 10:35:00,77.0,55.2,30.05,NE,50,0.0,0.0,47,0.00,,---,0.04,VWS V15.00,2016-07-27 14:35:00,
2016-07-27 10:40:00,77.2,55.4,30.05,NE,50,0.0,0.0,47,0.00,,---,0.04,VWS V15.00,2016-07-27 14:40:00,
2016-07-27 10:45:00,77.5,55.7,30.05,NE,50,2.7,2.7,47,0.00,,---,0.04,VWS V15.00,2016-07-27 14:45:00,
2016-07-27 10:50:00,77.7,55.3,30.05,NE,50,0.0,0.0,46,0.00,,---,0.04,VWS V15.00,2016-07-27 14:50:00,
2016-07-27 10:55:00,77.9,55.5,30.02,NE,50,0.0,0.0,46,0.00,,---,0.00,VWS V15.00,2016-07-27 14:55:00,
2016-07-27 11:00:00,78.3,55.8,30.02,NE,50,3.1,3.1,46,0.00,,---,0.04,VWS V15.00,2016-07-27 15:00:00,
2016-07-27 11:05:00,78.4,55.4,30.02,NE,50,0.0,0.0,45,0.00,,---,0.04,VWS V15.00,2016-07-27 15:05:00,
2016-07-27 11:10:00,78.8,55.1,30.02,NE,50,0.0,0.0,44,0.00,,---,0.04,VWS V15.00,2016-07-27 15:10:00,
2016-07-27 11:15:00,79.3,55.6,30.02,NE,44,4.0,4.0,44,0.00,,---,0.04,VWS V15.00,2016-07-27 15:15:00,
2016-07-27 11:20:00,79.7,54.6,30.02,NE,47,2.7,2.7,42,0.00,,---,0.04,VWS V15.00,2016-07-27 15:20:00,
2016-07-27 11:25:00,79.7,53.9,30.02,NE,47,3.6,3.6,41,0.00,,---,0.04,VWS V15.00,2016-07-27 15:25:00,
2016-07-27 11:30:00,80.1,54.3,30.02,NE,47,0.0,0.0,41,0.00,,---,0.04,VWS V15.00,2016-07-27 15:30:00,
2016-07-27 11:35:00,80.6,54.1,30.02,NE,47,0.0,0.0,40,0.00,,---,0.04,VWS V15.00,2016-07-27 15:35:00,
2016-07-27 11:40:00,80.8,53.5,30.02,ESE,108,0.0,0.0,39,0.00,,---,0.04,VWS V15.00,2016-07-27 15:40:00,
2016-07-27 11:45:00,81.1,53.9,30.02,NE,52,3.6,3.6,39,0.00,,---,0.04,VWS V15.00,2016-07-27 15:45:00,
2016-07-27 11:50:00,81.1,51.7,30.02,NE,43,2.7,3.6,36,0.00,,---,0.04,VWS V15.00,2016-07-27 15:50:00,
2016-07-27 11:55:00,81.1,51.7,30.02,NE,43,4.0,4.0,36,0.00,,---,0.04,VWS V15.00,2016-07-27 15:55:00,
2016-07-27 12:00:00,81.5,51.2,30.02,NE,43,0.0,0.0,35,0.00,,---,0.04,VWS V15.00,2016-07-27 16:00:00,
2016-07-27 12:05:00,82.0,51.7,30.02,NNE,32,3.1,3.1,35,0.00,,---,0.04,VWS V15.00,2016-07-27 16:05:00,
2016-07-27 12:10:00,81.9,50.0,30.05,NE,56,3.6,3.6,33,0.00,,---,0.04,VWS V15.00,2016-07-27 16:10:00,
2016-07-27 12:15:00,81.7,49.8,30.05,SE,144,3.6,3.6,33,0.00,,---,0.04,VWS V15.00,2016-07-27 16:15:00,
2016-07-27 12:20:00,81.7,49.8,30.05,NNE,33,0.0,0.0,33,0.00,,---,0.04,VWS V15.00,2016-07-27 16:20:00,
2016-07-27 12:25:00,81.9,50.0,30.05,East,99,2.7,2.7,33,0.00,,---,0.04,VWS V15.00,2016-07-27 16:25:00,
2016-07-27 12:30:00,81.9,49.1,30.05,NE,48,0.0,0.0,32,0.00,,---,0.04,VWS V15.00,2016-07-27 16:30:00,
2016-07-27 12:35:00,81.9,48.3,30.05,NE,48,0.0,0.0,31,0.00,,---,0.04,VWS V15.00,2016-07-27 16:35:00,
2016-07-27 12:40:00,81.7,48.1,30.05,NE,48,2.7,3.6,31,0.00,,---,0.04,VWS V15.00,2016-07-27 16:40:00,
2016-07-27 12:45:00,81.7,48.1,30.05,NE,48,0.0,0.0,31,0.00,,---,0.04,VWS V15.00,2016-07-27 16:45:00,
2016-07-27 12:50:00,81.9,48.3,30.05,NE,48,0.0,0.0,31,0.00,,---,0.04,VWS V15.00,2016-07-27 16:50:00,
2016-07-27 12:55:00,81.9,47.4,30.05,NE,48,0.0,0.0,30,0.00,,---,0.04,VWS V15.00,2016-07-27 16:55:00,
2016-07-27 13:00:00,82.0,47.6,30.05,NW,305,2.7,2.7,30,0.00,,---,0.04,VWS V15.00,2016-07-27 17:00:00,
2016-07-27 13:05:00,82.0,47.6,30.05,NE,41,2.2,2.2,30,0.00,,---,0.04,VWS V15.00,2016-07-27 17:05:00,
2016-07-27 13:10:00,82.0,47.6,30.05,NW,321,2.2,3.1,30,0.00,,---,0.04,VWS V15.00,2016-07-27 17:10:00,
2016-07-27 13:15:00,82.0,47.6,30.05,NE,48,3.1,3.1,30,0.00,,---,0.04,VWS V15.00,2016-07-27 17:15:00,
2016-07-27 13:20:00,82.0,47.6,30.05,NE,48,2.7,3.1,30,0.00,,---,0.04,VWS V15.00,2016-07-27 17:20:00,
2016-07-27 13:25:00,82.0,47.6,30.02,NE,48,0.0,3.1,30,0.00,,---,0.00,VWS V15.00,2016-07-27 17:25:00,
2016-07-27 13:30:00,82.2,47.7,30.02,NE,48,0.0,0.0,30,0.00,,---,0.04,VWS V15.00,2016-07-27 17:30:00,
2016-07-27 13:35:00,82.6,48.0,30.02,NE,48,4.0,4.0,30,0.00,,---,0.04,VWS V15.00,2016-07-27 17:35:00,
2016-07-27 13:40:00,82.2,47.7,30.02,NE,46,0.0,0.0,30,0.00,,---,0.04,VWS V15.00,2016-07-27 17:40:00,
2016-07-27 13:45:00,82.4,47.0,30.02,WNW,284,3.1,3.1,29,0.00,,---,0.04,VWS V15.00,2016-07-27 17:45:00,
2016-07-27 13:50:00,82.4,47.0,30.02,West,274,2.7,2.7,29,0.00,,---,0.04,VWS V15.00,2016-07-27 17:50:00,
2016-07-27 13:55:00,82.2,47.7,30.02,West,264,0.0,2.7,30,0.00,,---,0.04,VWS V15.00,2016-07-27 17:55:00,
2016-07-27 14:00:00,82.6,47.1,30.02,NE,45,3.6,4.0,29,0.00,,---,0.04,VWS V15.00,2016-07-27 18:00:00,
2016-07-27 14:05:00,82.8,48.2,30.02,NE,45,0.0,0.0,30,0.00,,---,0.04,VWS V15.00,2016-07-27 18:05:00,
2016-07-27 14:10:00,82.8,48.2,30.02,NE,45,2.7,2.7,30,0.00,,---,0.04,VWS V15.00,2016-07-27 18:10:00,
2016-07-27 14:15:00,82.6,47.1,30.02,NE,45,0.0,0.0,29,0.00,,---,0.04,VWS V15.00,2016-07-27 18:15:00,
2016-07-27 14:20:00,82.4,47.0,30.02,East,87,2.2,3.6,29,0.00,,---,0.04,VWS V15.00,2016-07-27 18:20:00,
2016-07-27 14:25:00,82.4,47.0,30.02,SE,136,2.7,3.1,29,0.00,,---,0.04,VWS V15.00,2016-07-27 18:25:00,
2016-07-27 14:30:00,82.4,47.0,30.02,NE,49,0.0,4.0,29,0.00,,---,0.04,VWS V15.00,2016-07-27 18:30:00,
2016-07-27 14:35:00,82.8,47.3,30.02,NE,49,0.0,0.0,29,0.00,,---,0.04,VWS V15.00,2016-07-27 18:35:00,
2016-07-27 14:40:00,82.8,47.3,30.02,ENE,63,2.7,3.6,29,0.00,,---,0.04,VWS V15.00,2016-07-27 18:40:00,
2016-07-27 14:45:00,82.8,47.3,30.02,NE,47,2.2,2.7,29,0.00,,---,0.04,VWS V15.00,2016-07-27 18:45:00,
2016-07-27 14:50:00,82.8,47.3,30.02,NE,52,0.0,2.2,29,0.00,,---,0.04,VWS V15.00,2016-07-27 18:50:00,
2016-07-27 14:55:00,82.6,47.1,30.02,NE,52,0.0,3.6,29,0.00,,---,0.04,VWS V15.00,2016-07-27 18:55:00,